Huvudsida
METAR-TAF:

METAR-TAF

Flygplatser :

Ilam flygplats

Ilam, Iran

latitud: 33-35-09N, longitud: 046-24-20E, höjd: 1334 m

Aktuellt väderrapport

Denna rapport gjordes för 34 minuter sedan, klockan 08:00 UTC
Vind 8 kt från syd/sydost
Temperatur 13°C
Fuktighet 51%
Tryck 1021 hPa
Sikt 10 km eller mer
Få moln på en höjd av 4000 ft

METAR: OICI 220800Z 15008KT 9999 FEW040 13/03 Q1021 A3016

Tid: 12:04 (08:34 UTC)

Väderprognos

Denna rapport gjordes för 3 timmar och 4 minuter sedan, klockan 05:30 UTC
Prognos gäller från 22 kl. 06 UTC till 23 kl. 12 UTC
Vind 6 kt från ost/sydost
Sikt 10 km eller mer
Inga moln under 1 500 m eller inga cumulonimbus
Temporärt
från 22 kl. 15 UTC till 22 kl. 24 UTC
Få moln på en höjd av 3500 ft, Cumulonimbus.
Spridda moln på en höjd av 4000 ft
Brutna moln på en höjd av 10000 ft
Temporärt
från 23 kl. 06 UTC till 23 kl. 12 UTC
Vind 18 kt från syd

TAF: OICI 220530Z 2206/2312 12006KT CAVOK TEMPO 2215/2224 FEW035CB SCT040 BKN100 TEMPO 2306/2312 18018KT

Aktuella väderrapporter och prognoser från 4000 flygplatser (METAR- och TAF-rapporter).

De tillgängliga stationerna syns som gula och röda prickar på kartan.

För musen över prickarna för att se namnen på stationerna.

Klicka sedan för att få väderrapporter och prognoser.

För att ändra kartan: Klicka på de gröna knapparna med ett svart kors på för att zooma in; den gröna knappen med ett streck på för att zooma ut; eller på de gröna pilarna för angränsande kartor.


METAR-TAF: